createdAt,value
2023-03-11T00:00:17.160Z,19.92
2023-03-11T00:02:47.428Z,23.80
2023-03-11T00:05:17.433Z,21.25
2023-03-11T00:07:45.664Z,22.75
2023-03-11T00:10:17.256Z,23.40
2023-03-11T00:12:45.539Z,21.65
2023-03-11T00:15:14.807Z,24.25
2023-03-11T00:17:43.285Z,21.80
2023-03-11T00:20:20.168Z,23.85
2023-03-11T00:22:48.852Z,22.75
2023-03-11T00:25:17.032Z,23.15
2023-03-11T00:27:45.370Z,25.88
2023-03-11T00:30:15.849Z,27.67
2023-03-11T00:32:43.954Z,27.58
2023-03-11T00:35:16.812Z,29.48
2023-03-11T00:37:46.719Z,26.30
2023-03-11T00:40:17.275Z,25.95
2023-03-11T00:42:46.258Z,25.35
2023-03-11T00:45:15.204Z,24.40
2023-03-11T00:47:43.666Z,23.40
2023-03-11T00:50:19.082Z,24.02
2023-03-11T00:52:47.846Z,23.92
2023-03-11T00:55:18.345Z,27.88
2023-03-11T00:57:46.615Z,28.67
2023-03-11T01:00:16.473Z,30.75
2023-03-11T01:02:45.229Z,26.55
2023-03-11T01:05:14.512Z,31.30
2023-03-11T01:07:44.027Z,27.02
2023-03-11T01:10:13.658Z,28.33
2023-03-11T01:12:43.273Z,26.75
2023-03-11T01:15:18.881Z,27.25
2023-03-11T01:17:46.930Z,27.15
2023-03-11T01:20:16.220Z,26.73
2023-03-11T01:22:46.153Z,28.83
2023-03-11T01:25:15.568Z,27.70
2023-03-11T01:27:43.969Z,27.60
2023-03-11T01:30:16.196Z,27.23
2023-03-11T01:32:44.434Z,28.15
2023-03-11T01:35:13.439Z,27.15
2023-03-11T01:37:41.610Z,29.75
2023-03-11T01:59:24.051Z,36.28
2023-03-11T02:01:59.164Z,31.42
2023-03-11T02:04:28.627Z,28.75
2023-03-11T02:06:57.412Z,30.73
2023-03-11T02:09:27.155Z,26.90
2023-03-11T02:11:55.766Z,22.70
2023-03-11T02:14:26.981Z,20.10
2023-03-11T02:16:55.361Z,22.65
2023-03-11T02:19:31.534Z,22.48
2023-03-11T02:22:00.555Z,23.35
2023-03-11T02:24:38.129Z,24.23
2023-03-11T02:27:10.563Z,21.10
2023-03-11T02:29:39.755Z,24.65
2023-03-11T02:32:11.540Z,22.17
2023-03-11T02:34:41.287Z,20.20
2023-03-11T02:37:12.161Z,21.30
2023-03-11T02:39:42.278Z,21.55
2023-03-11T02:42:15.328Z,21.88
2023-03-11T02:44:45.808Z,18.88
2023-03-11T02:47:13.866Z,19.52
2023-03-11T02:49:41.993Z,18.85
2023-03-11T02:52:10.041Z,20.10
2023-03-11T02:54:38.140Z,17.98
2023-03-11T02:57:06.229Z,20.75
2023-03-11T02:59:35.911Z,19.67
2023-03-11T03:02:03.973Z,29.88
2023-03-11T03:04:32.144Z,27.42
2023-03-11T03:07:00.235Z,28.17
2023-03-11T03:09:28.359Z,28.45
2023-03-11T03:11:56.451Z,30.65
2023-03-11T03:14:24.512Z,30.45
2023-03-11T03:16:54.448Z,26.25
2023-03-11T03:19:22.589Z,25.13
2023-03-11T03:21:50.902Z,25.17
2023-03-11T03:24:19.066Z,23.52
2023-03-11T03:26:47.090Z,25.27
2023-03-11T03:29:15.137Z,21.20
2023-03-11T03:31:43.261Z,17.48
2023-03-11T03:34:12.697Z,22.38
2023-03-11T03:36:40.912Z,24.27
2023-03-11T03:39:09.066Z,19.17
2023-03-11T03:41:37.257Z,18.23
2023-03-11T03:44:05.595Z,19.17
2023-03-11T03:46:33.692Z,20.05
2023-03-11T03:49:01.775Z,20.95
2023-03-11T03:51:35.590Z,20.95
2023-03-11T03:54:03.674Z,20.65
2023-03-11T03:56:32.111Z,17.45
2023-03-11T03:59:00.240Z,18.98
2023-03-11T04:01:28.510Z,19.00
2023-03-11T04:03:56.761Z,15.43
2023-03-11T04:06:27.251Z,18.83
2023-03-11T04:08:57.090Z,22.38
2023-03-11T04:11:25.281Z,20.88
2023-03-11T04:13:53.328Z,21.58
2023-03-11T04:16:23.839Z,27.38
2023-03-11T04:18:52.031Z,28.20
2023-03-11T04:21:20.380Z,27.90
2023-03-11T04:23:48.526Z,23.83
2023-03-11T04:26:18.223Z,24.50
2023-03-11T04:28:46.287Z,24.58
2023-03-11T04:31:16.596Z,23.83
2023-03-11T04:33:44.727Z,25.25
2023-03-11T04:36:13.832Z,22.95
2023-03-11T04:38:41.965Z,23.17
2023-03-11T04:41:10.328Z,19.15
2023-03-11T04:43:39.912Z,21.73
2023-03-11T04:46:08.065Z,24.52
2023-03-11T04:48:36.088Z,25.13
2023-03-11T04:51:04.409Z,28.55
2023-03-11T04:53:32.394Z,24.30
2023-03-11T04:56:00.677Z,21.05
2023-03-11T04:58:28.847Z,22.02
2023-03-11T05:00:58.361Z,23.92
2023-03-11T05:03:26.745Z,23.10
2023-03-11T05:05:56.801Z,23.02
2023-03-11T05:08:25.443Z,20.00
2023-03-11T05:10:54.252Z,23.13
2023-03-11T05:13:23.058Z,18.13
2023-03-11T05:15:51.173Z,22.90
2023-03-11T05:18:20.552Z,17.75
2023-03-11T05:20:48.949Z,18.05
2023-03-11T05:23:16.930Z,20.38
2023-03-11T05:25:44.999Z,16.80
2023-03-11T05:28:13.089Z,20.17
2023-03-11T05:30:41.120Z,18.98
2023-03-11T05:33:09.419Z,18.83
2023-03-11T05:35:39.057Z,18.45
2023-03-11T05:38:07.929Z,19.67
2023-03-11T05:40:36.122Z,18.90
2023-03-11T05:43:04.172Z,15.90
2023-03-11T05:45:32.373Z,16.15
2023-03-11T05:48:00.468Z,16.88
2023-03-11T05:50:28.693Z,19.52
2023-03-11T05:52:58.394Z,20.33
2023-03-11T05:55:26.610Z,22.92
2023-03-11T05:57:54.996Z,21.83
2023-03-11T06:00:24.039Z,18.80
2023-03-11T06:02:52.167Z,19.95
2023-03-11T06:05:20.248Z,17.65
2023-03-11T06:07:48.396Z,14.52
2023-03-11T06:10:18.501Z,17.50
2023-03-11T06:12:46.696Z,21.70
2023-03-11T06:15:18.286Z,19.65
2023-03-11T06:17:54.248Z,18.27
2023-03-11T06:20:22.880Z,16.33
2023-03-11T06:22:51.128Z,19.13
2023-03-11T06:25:21.029Z,16.77
2023-03-11T06:27:51.731Z,15.30
2023-03-11T06:30:20.844Z,16.02
2023-03-11T06:32:49.161Z,14.00
2023-03-11T06:35:17.421Z,12.68
2023-03-11T06:37:45.552Z,10.25
2023-03-11T06:40:14.083Z,9.25
2023-03-11T06:42:46.679Z,8.70
2023-03-11T06:45:14.939Z,8.32
2023-03-11T06:47:43.084Z,8.57
2023-03-11T06:50:12.642Z,8.73
2023-03-11T06:52:40.730Z,8.38
2023-03-11T06:55:11.031Z,7.13
2023-03-11T06:57:39.664Z,18.23
2023-03-11T07:00:12.329Z,7.53
2023-03-11T07:02:40.441Z,9.32
2023-03-11T07:05:08.931Z,8.90
2023-03-11T07:07:36.970Z,13.02
2023-03-11T07:10:05.695Z,11.75
2023-03-11T07:12:33.793Z,10.27
2023-03-11T07:15:02.069Z,7.70
2023-03-11T07:17:31.559Z,7.88
2023-03-11T07:19:59.713Z,8.95
2023-03-11T07:22:27.907Z,7.47
2023-03-11T07:24:55.945Z,6.07
2023-03-11T07:27:24.131Z,10.40
2023-03-11T07:29:52.230Z,10.43
2023-03-11T07:32:20.428Z,4.32
2023-03-11T07:34:49.884Z,4.45
2023-03-11T07:37:17.873Z,6.32
2023-03-11T07:39:45.993Z,13.02
2023-03-11T07:42:14.065Z,4.63
2023-03-11T07:44:42.136Z,6.32
2023-03-11T07:47:10.289Z,8.50
2023-03-11T07:49:38.357Z,3.88
2023-03-11T07:52:08.286Z,6.03
2023-03-11T07:54:36.499Z,11.95
2023-03-11T07:57:04.928Z,7.97
2023-03-11T07:59:33.052Z,4.93
2023-03-11T08:02:01.213Z,15.75
2023-03-11T08:04:29.293Z,4.93
2023-03-11T08:06:57.364Z,4.78
2023-03-11T08:09:26.838Z,6.85
2023-03-11T08:11:55.032Z,5.05
2023-03-11T08:14:23.109Z,9.88
2023-03-11T08:16:51.161Z,6.90
2023-03-11T08:19:19.543Z,6.82
2023-03-11T08:21:47.610Z,7.82
2023-03-11T08:24:16.298Z,6.80
2023-03-11T08:26:45.883Z,13.18
2023-03-11T08:29:14.014Z,5.22
2023-03-11T08:31:42.209Z,6.60
2023-03-11T08:34:12.093Z,8.05
2023-03-11T08:36:40.347Z,7.80
2023-03-11T08:39:09.144Z,6.97
2023-03-11T08:41:37.464Z,6.57
2023-03-11T08:44:07.234Z,8.52
2023-03-11T08:46:38.169Z,7.65
2023-03-11T08:49:07.500Z,7.80
2023-03-11T08:51:36.808Z,5.38
2023-03-11T08:54:05.548Z,5.07
2023-03-11T08:56:33.614Z,11.45
2023-03-11T08:59:01.784Z,8.95
2023-03-11T09:01:31.246Z,5.57
2023-03-11T09:03:59.471Z,11.27
2023-03-11T09:06:30.536Z,10.82
2023-03-11T09:08:59.253Z,6.50
2023-03-11T09:11:27.682Z,8.00
2023-03-11T09:13:55.849Z,6.28
2023-03-11T09:16:25.044Z,5.00
2023-03-11T09:18:54.669Z,6.15
2023-03-11T09:21:23.221Z,5.35
2023-03-11T09:23:51.270Z,4.60
2023-03-11T09:26:19.425Z,4.63
2023-03-11T09:28:49.407Z,7.18
2023-03-11T09:31:18.108Z,5.63
2023-03-11T09:33:47.209Z,6.70
2023-03-11T09:36:22.639Z,6.50
2023-03-11T09:38:50.852Z,5.80
2023-03-11T09:41:30.774Z,8.25
2023-03-11T09:44:12.312Z,5.90
2023-03-11T09:47:00.589Z,4.97
2023-03-11T09:49:42.187Z,3.50
2023-03-11T09:52:13.791Z,6.38
2023-03-11T09:54:44.432Z,6.65
2023-03-11T09:57:17.173Z,3.72
2023-03-11T09:59:46.633Z,4.30
2023-03-11T10:02:18.893Z,5.95
2023-03-11T10:04:53.841Z,2.47
2023-03-11T10:09:54.969Z,3.97
2023-03-11T10:12:35.148Z,3.08
2023-03-11T10:15:17.549Z,2.67
2023-03-11T10:17:58.242Z,3.40
2023-03-11T10:20:32.416Z,1.13
2023-03-11T10:23:14.068Z,2.42
2023-03-11T10:25:55.155Z,2.75
2023-03-11T10:28:28.804Z,5.35
2023-03-11T10:31:02.615Z,5.82
2023-03-11T10:33:36.788Z,1.42
2023-03-11T10:36:08.421Z,2.60
2023-03-11T10:38:43.496Z,3.72
2023-03-11T10:41:19.321Z,2.83
2023-03-11T10:43:53.238Z,4.78
2023-03-11T10:46:25.323Z,0.95
2023-03-11T10:48:53.382Z,3.38
2023-03-11T10:51:23.719Z,3.58
2023-03-11T10:53:54.862Z,1.88
2023-03-11T10:56:29.849Z,0.70
2023-03-11T10:58:58.759Z,1.45
2023-03-11T11:01:29.018Z,3.50
2023-03-11T11:04:00.914Z,1.98
2023-03-11T11:06:30.941Z,4.93
2023-03-11T11:09:14.707Z,1.02
2023-03-11T11:11:43.007Z,3.63
2023-03-11T11:14:11.551Z,0.80
2023-03-11T11:16:40.126Z,1.33
2023-03-11T11:19:11.961Z,1.50
2023-03-11T11:21:43.111Z,3.85
2023-03-11T11:24:24.502Z,3.75
2023-03-11T11:27:06.589Z,1.40
2023-03-11T11:29:35.272Z,0.90
2023-03-11T11:32:20.175Z,2.38
2023-03-11T11:35:02.174Z,1.10
2023-03-11T11:37:33.242Z,1.45
2023-03-11T11:40:11.520Z,2.88
2023-03-11T11:42:41.291Z,2.15
2023-03-11T11:45:15.943Z,1.75
2023-03-11T11:47:48.797Z,4.28
2023-03-11T11:50:24.437Z,3.42
2023-03-11T11:52:57.682Z,1.10
2023-03-11T11:55:29.723Z,2.30
2023-03-11T11:57:58.902Z,1.35
2023-03-11T12:00:37.599Z,3.00
2023-03-11T12:03:23.746Z,1.23
2023-03-11T12:05:58.280Z,1.80
2023-03-11T12:08:34.595Z,2.50
2023-03-11T12:11:07.063Z,2.05
2023-03-11T12:13:55.797Z,2.47
2023-03-11T12:16:38.162Z,1.08
2023-03-11T12:19:18.472Z,2.20
2023-03-11T12:22:24.498Z,5.97
2023-03-11T12:25:14.393Z,1.17
2023-03-11T12:27:50.118Z,2.22
2023-03-11T12:30:22.425Z,1.63
2023-03-11T12:32:54.448Z,1.92
2023-03-11T12:35:27.775Z,3.65
2023-03-11T12:38:09.118Z,1.60
2023-03-11T12:40:51.963Z,1.17
2023-03-11T12:44:11.932Z,2.15
2023-03-11T12:47:12.402Z,1.85
2023-03-11T12:49:43.592Z,0.63
2023-03-11T12:52:31.744Z,3.05
2023-03-11T12:55:31.985Z,9.98
2023-03-11T12:58:17.976Z,2.38
2023-03-11T13:01:16.762Z,2.42
2023-03-11T13:03:56.963Z,7.95
2023-03-11T13:06:40.830Z,3.75
2023-03-11T13:09:15.823Z,7.13
2023-03-11T13:11:46.881Z,5.90
2023-03-11T13:14:32.951Z,3.97
2023-03-11T13:17:27.386Z,5.22
2023-03-11T13:19:57.004Z,3.67
2023-03-11T13:23:16.755Z,24.45
2023-03-11T13:25:59.530Z,2.55
2023-03-11T13:28:55.922Z,3.33
2023-03-11T13:31:46.434Z,3.25
2023-03-11T13:34:25.307Z,5.68
2023-03-11T13:37:07.585Z,8.52
2023-03-11T13:39:49.180Z,4.38
2023-03-11T13:42:25.505Z,5.28
2023-03-11T13:44:53.822Z,3.38
2023-03-11T13:47:22.758Z,2.25
2023-03-11T13:49:59.792Z,4.68
2023-03-11T13:52:31.793Z,11.15
2023-03-11T13:55:04.366Z,3.22
2023-03-11T13:57:34.359Z,3.10
2023-03-11T14:00:17.813Z,10.23
2023-03-11T14:02:51.318Z,7.18
2023-03-11T14:05:24.813Z,3.67
2023-03-11T14:07:53.003Z,4.72
2023-03-11T14:10:26.050Z,2.17
2023-03-11T14:13:06.581Z,2.05
2023-03-11T14:15:45.053Z,3.70
2023-03-11T14:18:31.966Z,2.15
2023-03-11T14:21:02.707Z,2.83
2023-03-11T14:23:35.973Z,2.25
2023-03-11T14:26:08.087Z,4.45
2023-03-11T14:28:41.924Z,4.78
2023-03-11T14:31:24.623Z,7.18
2023-03-11T14:33:58.625Z,3.63
2023-03-11T14:36:28.418Z,3.80
2023-03-11T14:38:56.580Z,1.77
2023-03-11T14:41:24.857Z,4.30
2023-03-11T14:43:54.875Z,7.22
2023-03-11T14:46:28.571Z,1.58
2023-03-11T14:48:58.434Z,1.98
2023-03-11T14:51:31.544Z,4.45
2023-03-11T14:54:08.424Z,5.15
2023-03-11T14:56:40.759Z,7.43
2023-03-11T14:59:15.139Z,9.25
2023-03-11T15:01:45.332Z,3.33
2023-03-11T15:04:16.157Z,7.43
2023-03-11T15:06:47.615Z,4.55
2023-03-11T15:09:17.495Z,6.32
2023-03-11T15:11:47.472Z,7.85
2023-03-11T15:14:24.351Z,5.70
2023-03-11T15:16:53.861Z,6.75
2023-03-11T15:19:32.500Z,2.63
2023-03-11T15:22:22.122Z,2.60
2023-03-11T15:24:52.811Z,2.78
2023-03-11T15:27:30.519Z,3.05
2023-03-11T15:30:00.322Z,4.75
2023-03-11T15:32:40.742Z,5.38
2023-03-11T15:35:18.253Z,2.97
2023-03-11T15:37:49.643Z,1.52
2023-03-11T15:40:35.283Z,3.03
2023-03-11T15:43:26.664Z,1.95
2023-03-11T15:45:55.939Z,1.55
2023-03-11T15:48:24.750Z,3.70
2023-03-11T15:50:55.281Z,4.43
2023-03-11T15:53:27.364Z,5.03
2023-03-11T15:56:06.584Z,3.17
2023-03-11T15:58:35.409Z,4.25
2023-03-11T16:01:04.136Z,4.93
2023-03-11T16:03:32.252Z,5.50
2023-03-11T16:06:00.793Z,5.53
2023-03-11T16:08:30.267Z,3.20
2023-03-11T16:10:58.854Z,4.00
2023-03-11T16:13:26.930Z,5.38
2023-03-11T16:15:55.042Z,4.28
2023-03-11T16:18:23.368Z,5.35
2023-03-11T16:20:54.157Z,6.60
2023-03-11T16:23:25.881Z,2.88
2023-03-11T16:25:59.893Z,7.72
2023-03-11T16:28:28.451Z,7.05
2023-03-11T16:30:57.028Z,5.47
2023-03-11T16:33:25.190Z,4.28
2023-03-11T16:35:53.263Z,4.40
2023-03-11T16:38:23.212Z,3.15
2023-03-11T16:40:57.985Z,6.32
2023-03-11T16:43:26.132Z,8.60
2023-03-11T16:45:55.070Z,6.80
2023-03-11T16:48:23.991Z,6.88
2023-03-11T16:50:52.386Z,7.93
2023-03-11T16:53:20.414Z,3.08
2023-03-11T16:55:48.928Z,6.47
2023-03-11T16:58:18.430Z,9.35
2023-03-11T17:00:47.077Z,13.82
2023-03-11T17:03:17.171Z,6.50
2023-03-11T17:05:45.598Z,10.13
2023-03-11T17:08:13.666Z,10.32
2023-03-11T17:10:44.037Z,6.40
2023-03-11T17:13:17.005Z,6.78
2023-03-11T17:15:58.344Z,4.95
2023-03-11T17:18:26.524Z,4.13
2023-03-11T17:20:54.634Z,5.32
2023-03-11T17:23:22.664Z,4.03
2023-03-11T17:25:50.839Z,7.07
2023-03-11T17:28:19.045Z,8.88
2023-03-11T17:30:50.217Z,12.45
2023-03-11T17:33:18.348Z,10.13
2023-03-11T17:35:50.196Z,5.95
2023-03-11T17:38:18.158Z,4.70
2023-03-11T17:40:46.204Z,5.07
2023-03-11T17:43:14.234Z,5.68
2023-03-11T17:45:42.592Z,4.28
2023-03-11T17:48:11.907Z,5.32
2023-03-11T17:50:40.405Z,5.95
2023-03-11T17:53:08.624Z,10.30
2023-03-11T17:55:40.976Z,6.07
2023-03-11T17:58:09.386Z,4.22
2023-03-11T18:00:38.026Z,7.40
2023-03-11T18:03:06.137Z,4.82
2023-03-11T18:05:37.877Z,5.18
2023-03-11T18:08:06.240Z,4.43
2023-03-11T18:10:34.230Z,10.10
2023-03-11T18:13:02.344Z,5.57
2023-03-11T18:15:30.481Z,7.38
2023-03-11T18:17:58.579Z,6.50
2023-03-11T18:20:26.582Z,5.32
2023-03-11T18:22:56.418Z,6.28
2023-03-11T18:25:24.510Z,5.15
2023-03-11T18:27:53.004Z,5.80
2023-03-11T18:30:21.069Z,6.60
2023-03-11T18:32:49.564Z,7.07
2023-03-11T18:35:17.886Z,3.75
2023-03-11T18:37:46.765Z,6.72
2023-03-11T18:40:16.567Z,4.00
2023-03-11T18:42:44.598Z,5.82
2023-03-11T18:45:14.008Z,5.38
2023-03-11T18:47:42.036Z,9.75
2023-03-11T18:50:11.719Z,7.55
2023-03-11T18:52:39.876Z,5.43
2023-03-11T18:55:08.757Z,5.32
2023-03-11T18:57:40.391Z,6.20
2023-03-11T19:00:09.772Z,7.65
2023-03-11T19:02:37.802Z,9.38
2023-03-11T19:05:06.595Z,4.30
2023-03-11T19:07:34.671Z,10.77
2023-03-11T19:10:02.798Z,4.72
2023-03-11T19:12:33.744Z,13.70
2023-03-11T19:15:03.343Z,5.50
2023-03-11T19:17:31.318Z,8.63
2023-03-11T19:19:59.316Z,4.40
2023-03-11T19:22:27.438Z,6.82
2023-03-11T19:24:55.355Z,10.48
2023-03-11T19:27:23.431Z,9.77
2023-03-11T19:29:51.575Z,9.05
2023-03-11T19:32:22.091Z,5.10
2023-03-11T19:34:50.308Z,9.20
2023-03-11T19:37:18.382Z,7.07
2023-03-11T19:39:46.351Z,7.20
2023-03-11T19:42:14.371Z,4.88
2023-03-11T19:44:42.386Z,6.13
2023-03-11T19:47:10.487Z,8.88
2023-03-11T19:49:39.880Z,7.18
2023-03-11T19:52:09.853Z,8.68
2023-03-11T19:54:38.366Z,8.70
2023-03-11T19:57:06.568Z,10.85
2023-03-11T19:59:34.865Z,7.60
2023-03-11T20:02:03.084Z,12.85
2023-03-11T20:04:31.252Z,9.00
2023-03-11T20:07:00.963Z,11.88
2023-03-11T20:09:29.102Z,8.18
2023-03-11T20:11:57.190Z,8.32
2023-03-11T20:14:25.173Z,14.65
2023-03-11T20:16:53.347Z,10.25
2023-03-11T20:19:22.333Z,8.98
2023-03-11T20:21:50.459Z,8.23
2023-03-11T20:24:19.943Z,6.60
2023-03-11T20:26:50.745Z,10.93
2023-03-11T20:29:19.586Z,10.45
2023-03-11T20:31:47.671Z,9.05
2023-03-11T20:34:15.639Z,6.38
2023-03-11T20:36:43.688Z,7.45
2023-03-11T20:39:11.906Z,9.73
2023-03-11T20:41:42.373Z,13.82
2023-03-11T20:44:14.103Z,10.40
2023-03-11T20:46:42.876Z,10.20
2023-03-11T20:49:11.261Z,15.73
2023-03-11T20:51:41.658Z,11.07
2023-03-11T20:54:10.046Z,10.18
2023-03-11T20:56:38.199Z,12.82
2023-03-11T20:59:07.788Z,12.95
2023-03-11T21:01:36.463Z,15.18
2023-03-11T21:04:05.347Z,14.40
2023-03-11T21:06:35.749Z,10.85
2023-03-11T21:09:06.335Z,14.60
2023-03-11T21:11:35.644Z,15.80
2023-03-11T21:14:04.090Z,8.80
2023-03-11T21:16:33.557Z,9.27
2023-03-11T21:19:05.492Z,5.47
2023-03-11T21:21:33.965Z,11.02
2023-03-11T21:24:02.239Z,8.07
2023-03-11T21:26:30.826Z,10.15
2023-03-11T21:28:59.022Z,9.57
2023-03-11T21:31:29.485Z,7.60
2023-03-11T21:34:01.190Z,6.78
2023-03-11T21:36:30.035Z,9.27
2023-03-11T21:38:58.130Z,7.88
2023-03-11T21:41:27.754Z,7.00
2023-03-11T21:43:57.357Z,6.95
2023-03-11T21:46:28.074Z,7.97
2023-03-11T21:48:56.323Z,8.10
2023-03-11T21:51:26.200Z,4.93
2023-03-11T21:53:54.453Z,5.15
2023-03-11T21:56:23.803Z,5.50
2023-03-11T21:58:53.853Z,13.32
2023-03-11T22:01:21.972Z,15.40
2023-03-11T22:03:50.239Z,7.90
2023-03-11T22:06:18.572Z,10.68
2023-03-11T22:08:48.169Z,5.95
2023-03-11T22:11:19.453Z,10.10
2023-03-11T22:13:49.194Z,4.70
2023-03-11T22:16:17.434Z,5.85
2023-03-11T22:18:46.745Z,5.18
2023-03-11T22:21:16.357Z,6.25
2023-03-11T22:23:45.281Z,8.00
2023-03-11T22:26:15.932Z,5.15
2023-03-11T22:28:44.883Z,7.70
2023-03-11T22:31:15.551Z,7.40
2023-03-11T22:33:43.796Z,6.57
2023-03-11T22:36:12.004Z,9.23
2023-03-11T22:38:42.281Z,3.80
2023-03-11T22:41:10.562Z,4.07
2023-03-11T22:43:40.732Z,4.05
2023-03-11T22:46:09.028Z,5.38
2023-03-11T22:48:37.655Z,4.55
2023-03-11T22:51:06.823Z,11.02
2023-03-11T22:53:34.847Z,9.05
2023-03-11T22:56:08.096Z,6.07
2023-03-11T22:58:36.545Z,7.18
2023-03-11T23:01:07.241Z,7.57
2023-03-11T23:03:36.634Z,5.28
2023-03-11T23:06:07.473Z,4.72
2023-03-11T23:08:36.593Z,5.88
2023-03-11T23:11:06.727Z,5.20
2023-03-11T23:13:36.068Z,8.20
2023-03-11T23:16:11.303Z,4.10
2023-03-11T23:18:39.946Z,5.30
2023-03-11T23:21:17.065Z,4.05
2023-03-11T23:23:45.575Z,4.47
2023-03-11T23:26:14.557Z,3.78
2023-03-11T23:28:43.223Z,8.52
2023-03-11T23:31:15.283Z,7.82
2023-03-11T23:33:44.205Z,8.05
2023-03-11T23:36:15.304Z,5.63
2023-03-11T23:38:43.693Z,4.90
2023-03-11T23:41:13.772Z,4.13
2023-03-11T23:43:42.111Z,7.07
2023-03-11T23:46:11.153Z,6.50
2023-03-11T23:48:41.586Z,5.57
2023-03-11T23:51:09.873Z,7.32
2023-03-11T23:53:39.145Z,5.30
2023-03-11T23:56:11.247Z,7.22
2023-03-11T23:58:39.374Z,4.28
